TIPO2: N. Fork Red River nr Tipton, OK

Data processed at Fri Dec 08 2017 23:47


All information presented herein is the property of the government of the United States of America and may be revised or deleted at any time without prior notice.
Dissemination of this information without the expressed written consent of the Public Affairs Office, Tulsa District U.S. Army Corps of Engineers is strictly prohibited.
These data are gathered electronically and, as presented, have not undergone any form of quality control. These data are not guaranteed to be valid or correct.
Go to home page.
Go to station list.

Upstream stations:

Downstream station:
Previous Day
Next Day
Current Day
    
SHEF ID:       TIPO2     North Fork Red River near Tipton
STATION TYPE:  

                STAGE  RIV-FLOW   VOLTAGE  BAT-LOAD
                   ft       cfs      volt      volt
              Ccp-Rev   Ccp-Rev   Ccp-Rev   Ccp-Rev
(US/Central)
12/06 00:00      5.94       187     12.41     12.25
12/06 01:00      5.93       185     12.41     12.25
12/06 02:00      5.93       185     12.41     12.25
12/06 03:00      5.93       185     12.41     12.25
12/06 04:00      5.93       185     12.33     12.17
12/06 05:00      5.94       187     12.33     12.17
12/06 06:00      5.93       185     12.33     12.17
12/06 07:00      5.93       185     12.33     12.17
12/06 08:00      5.92       183     12.33     12.17
12/06 09:00      5.93       185     12.41     12.25
12/06 10:00      5.93       185     12.73     12.49
12/06 11:00      5.93       185     13.05     12.81
12/06 12:00      5.92       183     13.29     12.97
12/06 13:00      5.87       173     13.21     13.05
12/06 14:00      5.92       183     13.21     13.05
12/06 15:00      5.91       181     13.13     12.97
12/06 16:00      5.81       161     12.97     12.81
12/06 17:00      5.90       179     12.89     12.73
12/06 18:00      5.90       179     12.73     12.57
12/06 19:00      5.90       179     12.73     12.57
12/06 20:00      5.90       179     12.65     12.57
12/06 21:00      5.89       177     12.57     12.49
12/06 22:00      5.88       175     12.57     12.41
12/06 23:00      5.88       175     12.49     12.41